Tell City, Indiana
Current Conditions -  °F | °C
As of 12:15 PM on Thursday 29 Jan 2015 (Local Time) from KHNB Reporting Station
Overcast Overcast  
Wind Chill: 35°   Ceiling: 2000
Heat Index: 43°   Visibility: 10mi
Dew Point: 34°   Wind: 16mph
Humidity: 70%   Direction: 290°WNW
Pressure: 30.04"   Gusts: 28mph
Location:  37.95°N, 86.77°W
Report Text: KHNB 291815Z AUTO 29014G24KT 10SM BKN020 OVC028 06/01 A3004 RMK AO1
Loading
Personal Weather Stations






























Interactive Weather Map New forecast layout! Learn more

10-Day Weather Forecast

Advertisements
Track Severe Weather on mobile